sensor_id;sensor_type;location;lat;lon;timestamp;P1;durP1;ratioP1;P2;durP2;ratioP2
57389;SDS011;43217;52.694;6.214;2023-04-01T00:00:44;14.10;;;9.27;;
57389;SDS011;43217;52.694;6.214;2023-04-01T00:03:10;15.80;;;9.70;;
57389;SDS011;43217;52.694;6.214;2023-04-01T00:05:36;15.25;;;9.68;;
57389;SDS011;43217;52.694;6.214;2023-04-01T00:08:02;10.85;;;7.80;;
57389;SDS011;43217;52.694;6.214;2023-04-01T00:10:28;9.90;;;8.20;;
57389;SDS011;43217;52.694;6.214;2023-04-01T00:12:53;12.40;;;8.40;;
57389;SDS011;43217;52.694;6.214;2023-04-01T00:15:19;10.50;;;8.85;;
57389;SDS011;43217;52.694;6.214;2023-04-01T00:17:45;12.55;;;9.18;;
57389;SDS011;43217;52.694;6.214;2023-04-01T00:20:11;10.80;;;8.45;;
57389;SDS011;43217;52.694;6.214;2023-04-01T00:22:37;11.10;;;7.82;;
57389;SDS011;43217;52.694;6.214;2023-04-01T00:25:03;10.07;;;8.55;;
57389;SDS011;43217;52.694;6.214;2023-04-01T00:27:31;13.25;;;8.68;;
57389;SDS011;43217;52.694;6.214;2023-04-01T00:29:56;10.65;;;8.48;;
57389;SDS011;43217;52.694;6.214;2023-04-01T00:32:22;13.75;;;8.85;;
57389;SDS011;43217;52.694;6.214;2023-04-01T00:34:50;12.35;;;8.85;;
57389;SDS011;43217;52.694;6.214;2023-04-01T00:37:17;12.07;;;8.82;;
57389;SDS011;43217;52.694;6.214;2023-04-01T00:39:42;10.80;;;8.50;;
57389;SDS011;43217;52.694;6.214;2023-04-01T00:42:09;9.75;;;8.43;;
57389;SDS011;43217;52.694;6.214;2023-04-01T00:44:36;9.63;;;8.63;;
57389;SDS011;43217;52.694;6.214;2023-04-01T00:47:03;10.50;;;8.80;;
57389;SDS011;43217;52.694;6.214;2023-04-01T00:49:33;11.43;;;9.18;;
57389;SDS011;43217;52.694;6.214;2023-04-01T00:52:04;11.45;;;9.02;;
57389;SDS011;43217;52.694;6.214;2023-04-01T00:54:32;12.23;;;9.40;;
57389;SDS011;43217;52.694;6.214;2023-04-01T00:57:00;14.32;;;9.80;;
57389;SDS011;43217;52.694;6.214;2023-04-01T00:59:34;12.98;;;9.63;;
57389;SDS011;43217;52.694;6.214;2023-04-01T01:02:02;14.07;;;9.73;;
57389;SDS011;43217;52.694;6.214;2023-04-01T01:04:32;12.38;;;9.02;;
57389;SDS011;43217;52.694;6.214;2023-04-01T01:15:18;15.27;;;10.07;;
57389;SDS011;43217;52.694;6.214;2023-04-01T01:34:34;13.77;;;9.60;;
57389;SDS011;43217;52.694;6.214;2023-04-01T01:37:12;13.77;;;9.93;;
57389;SDS011;43217;52.694;6.214;2023-04-01T01:39:41;14.05;;;10.07;;
57389;SDS011;43217;52.694;6.214;2023-04-01T01:42:11;16.35;;;10.70;;
57389;SDS011;43217;52.694;6.214;2023-04-01T01:44:39;16.80;;;10.30;;
57389;SDS011;43217;52.694;6.214;2023-04-01T01:47:07;15.68;;;10.43;;
57389;SDS011;43217;52.694;6.214;2023-04-01T01:49:33;17.50;;;10.57;;
57389;SDS011;43217;52.694;6.214;2023-04-01T01:52:01;17.80;;;11.20;;
57389;SDS011;43217;52.694;6.214;2023-04-01T01:54:28;18.02;;;10.57;;
57389;SDS011;43217;52.694;6.214;2023-04-01T01:57:04;20.95;;;11.23;;
57389;SDS011;43217;52.694;6.214;2023-04-01T01:59:34;20.42;;;11.57;;
57389;SDS011;43217;52.694;6.214;2023-04-01T02:02:02;17.55;;;11.25;;
57389;SDS011;43217;52.694;6.214;2023-04-01T02:04:34;18.85;;;11.32;;
57389;SDS011;43217;52.694;6.214;2023-04-01T02:07:02;18.30;;;11.02;;
57389;SDS011;43217;52.694;6.214;2023-04-01T02:09:30;21.08;;;12.32;;
57389;SDS011;43217;52.694;6.214;2023-04-01T02:11:56;19.58;;;11.50;;
57389;SDS011;43217;52.694;6.214;2023-04-01T02:14:26;16.77;;;11.43;;
57389;SDS011;43217;52.694;6.214;2023-04-01T02:17:03;21.40;;;11.80;;
57389;SDS011;43217;52.694;6.214;2023-04-01T02:19:56;19.88;;;11.07;;
57389;SDS011;43217;52.694;6.214;2023-04-01T02:22:26;19.35;;;11.38;;
57389;SDS011;43217;52.694;6.214;2023-04-01T02:24:56;21.05;;;10.70;;
57389;SDS011;43217;52.694;6.214;2023-04-01T02:27:24;22.10;;;11.00;;
57389;SDS011;43217;52.694;6.214;2023-04-01T02:29:50;22.48;;;11.45;;
57389;SDS011;43217;52.694;6.214;2023-04-01T02:32:17;24.25;;;11.80;;
57389;SDS011;43217;52.694;6.214;2023-04-01T02:34:45;18.77;;;11.05;;
57389;SDS011;43217;52.694;6.214;2023-04-01T02:37:12;26.00;;;11.90;;
57389;SDS011;43217;52.694;6.214;2023-04-01T02:39:39;20.73;;;9.97;;
57389;SDS011;43217;52.694;6.214;2023-04-01T02:42:05;24.40;;;11.23;;
57389;SDS011;43217;52.694;6.214;2023-04-01T02:44:31;22.50;;;10.90;;
57389;SDS011;43217;52.694;6.214;2023-04-01T02:46:57;18.92;;;9.88;;
57389;SDS011;43217;52.694;6.214;2023-04-01T02:49:23;21.58;;;11.18;;
57389;SDS011;43217;52.694;6.214;2023-04-01T02:51:48;22.40;;;11.10;;
57389;SDS011;43217;52.694;6.214;2023-04-01T02:54:14;27.35;;;12.07;;
57389;SDS011;43217;52.694;6.214;2023-04-01T02:56:40;21.92;;;10.77;;
57389;SDS011;43217;52.694;6.214;2023-04-01T02:59:05;24.25;;;11.82;;
57389;SDS011;43217;52.694;6.214;2023-04-01T03:01:31;26.50;;;10.85;;
57389;SDS011;43217;52.694;6.214;2023-04-01T03:03:57;30.27;;;12.43;;
57389;SDS011;43217;52.694;6.214;2023-04-01T03:06:22;26.75;;;11.85;;
57389;SDS011;43217;52.694;6.214;2023-04-01T03:08:48;28.40;;;12.13;;
57389;SDS011;43217;52.694;6.214;2023-04-01T03:11:13;30.63;;;12.10;;
57389;SDS011;43217;52.694;6.214;2023-04-01T03:13:39;22.42;;;11.20;;
57389;SDS011;43217;52.694;6.214;2023-04-01T03:16:05;26.63;;;11.70;;
57389;SDS011;43217;52.694;6.214;2023-04-01T03:18:31;22.58;;;10.60;;
57389;SDS011;43217;52.694;6.214;2023-04-01T03:20:57;29.35;;;12.52;;
57389;SDS011;43217;52.694;6.214;2023-04-01T03:23:22;27.77;;;11.48;;
57389;SDS011;43217;52.694;6.214;2023-04-01T03:25:49;34.17;;;12.95;;
57389;SDS011;43217;52.694;6.214;2023-04-01T03:28:15;24.30;;;11.10;;
57389;SDS011;43217;52.694;6.214;2023-04-01T03:30:41;36.13;;;13.40;;
57389;SDS011;43217;52.694;6.214;2023-04-01T03:33:07;32.15;;;12.30;;
57389;SDS011;43217;52.694;6.214;2023-04-01T03:35:32;33.50;;;12.15;;
57389;SDS011;43217;52.694;6.214;2023-04-01T03:38:00;35.53;;;13.32;;
57389;SDS011;43217;52.694;6.214;2023-04-01T03:40:26;42.33;;;13.65;;
57389;SDS011;43217;52.694;6.214;2023-04-01T03:42:52;34.92;;;12.90;;
57389;SDS011;43217;52.694;6.214;2023-04-01T03:45:17;34.05;;;13.30;;
57389;SDS011;43217;52.694;6.214;2023-04-01T03:47:43;33.33;;;13.52;;
57389;SDS011;43217;52.694;6.214;2023-04-01T03:50:09;33.67;;;13.50;;
57389;SDS011;43217;52.694;6.214;2023-04-01T03:52:35;41.15;;;15.02;;
57389;SDS011;43217;52.694;6.214;2023-04-01T03:55:01;39.75;;;14.70;;
57389;SDS011;43217;52.694;6.214;2023-04-01T03:57:27;42.58;;;15.57;;
57389;SDS011;43217;52.694;6.214;2023-04-01T03:59:53;41.55;;;15.45;;
57389;SDS011;43217;52.694;6.214;2023-04-01T04:02:18;54.58;;;15.90;;
57389;SDS011;43217;52.694;6.214;2023-04-01T04:04:44;37.42;;;14.93;;
57389;SDS011;43217;52.694;6.214;2023-04-01T04:07:11;48.00;;;15.27;;
57389;SDS011;43217;52.694;6.214;2023-04-01T04:09:37;52.92;;;15.63;;
57389;SDS011;43217;52.694;6.214;2023-04-01T04:12:03;46.13;;;16.13;;
57389;SDS011;43217;52.694;6.214;2023-04-01T04:14:30;44.15;;;15.52;;
57389;SDS011;43217;52.694;6.214;2023-04-01T04:16:56;43.35;;;14.93;;
57389;SDS011;43217;52.694;6.214;2023-04-01T04:19:21;37.72;;;15.15;;
57389;SDS011;43217;52.694;6.214;2023-04-01T04:21:47;37.95;;;14.98;;
57389;SDS011;43217;52.694;6.214;2023-04-01T04:24:12;46.03;;;16.58;;
57389;SDS011;43217;52.694;6.214;2023-04-01T04:26:38;37.55;;;15.35;;
57389;SDS011;43217;52.694;6.214;2023-04-01T04:29:03;44.17;;;16.45;;
57389;SDS011;43217;52.694;6.214;2023-04-01T04:31:29;58.05;;;17.23;;
57389;SDS011;43217;52.694;6.214;2023-04-01T04:33:55;42.58;;;15.90;;
57389;SDS011;43217;52.694;6.214;2023-04-01T04:36:21;61.95;;;17.70;;
57389;SDS011;43217;52.694;6.214;2023-04-01T04:38:47;44.85;;;15.70;;
57389;SDS011;43217;52.694;6.214;2023-04-01T04:41:13;57.42;;;17.40;;
57389;SDS011;43217;52.694;6.214;2023-04-01T04:43:40;50.50;;;16.83;;
57389;SDS011;43217;52.694;6.214;2023-04-01T04:46:07;46.03;;;16.33;;
57389;SDS011;43217;52.694;6.214;2023-04-01T04:48:33;62.92;;;17.15;;
57389;SDS011;43217;52.694;6.214;2023-04-01T04:50:59;48.47;;;16.35;;
57389;SDS011;43217;52.694;6.214;2023-04-01T04:53:25;38.30;;;15.75;;
57389;SDS011;43217;52.694;6.214;2023-04-01T04:55:51;56.47;;;16.40;;
57389;SDS011;43217;52.694;6.214;2023-04-01T04:58:17;48.53;;;16.92;;
57389;SDS011;43217;52.694;6.214;2023-04-01T05:00:43;42.72;;;15.15;;
57389;SDS011;43217;52.694;6.214;2023-04-01T05:03:09;35.40;;;14.45;;
57389;SDS011;43217;52.694;6.214;2023-04-01T05:05:36;34.65;;;14.50;;
57389;SDS011;43217;52.694;6.214;2023-04-01T05:08:02;35.75;;;14.77;;
57389;SDS011;43217;52.694;6.214;2023-04-01T05:10:28;64.03;;;17.85;;
57389;SDS011;43217;52.694;6.214;2023-04-01T05:12:54;59.80;;;17.40;;
57389;SDS011;43217;52.694;6.214;2023-04-01T05:15:19;50.13;;;16.75;;
57389;SDS011;43217;52.694;6.214;2023-04-01T05:17:45;44.88;;;19.35;;
57389;SDS011;43217;52.694;6.214;2023-04-01T05:20:11;49.05;;;22.13;;
57389;SDS011;43217;52.694;6.214;2023-04-01T05:22:37;57.45;;;20.38;;
57389;SDS011;43217;52.694;6.214;2023-04-01T05:25:03;43.20;;;18.13;;
57389;SDS011;43217;52.694;6.214;2023-04-01T05:27:29;44.45;;;17.95;;
57389;SDS011;43217;52.694;6.214;2023-04-01T05:29:55;43.60;;;15.95;;
57389;SDS011;43217;52.694;6.214;2023-04-01T05:32:21;37.22;;;14.80;;
57389;SDS011;43217;52.694;6.214;2023-04-01T05:34:49;39.80;;;14.38;;
57389;SDS011;43217;52.694;6.214;2023-04-01T05:37:16;30.45;;;12.15;;
57389;SDS011;43217;52.694;6.214;2023-04-01T05:39:41;25.00;;;11.40;;
57389;SDS011;43217;52.694;6.214;2023-04-01T05:42:07;24.77;;;11.90;;
57389;SDS011;43217;52.694;6.214;2023-04-01T05:44:33;21.80;;;10.13;;
57389;SDS011;43217;52.694;6.214;2023-04-01T05:46:59;18.65;;;8.52;;
57389;SDS011;43217;52.694;6.214;2023-04-01T05:49:25;13.77;;;6.10;;
57389;SDS011;43217;52.694;6.214;2023-04-01T05:51:51;18.77;;;7.82;;
57389;SDS011;43217;52.694;6.214;2023-04-01T05:54:16;15.90;;;7.78;;
57389;SDS011;43217;52.694;6.214;2023-04-01T05:56:42;13.95;;;5.55;;
57389;SDS011;43217;52.694;6.214;2023-04-01T05:59:11;12.25;;;5.15;;
57389;SDS011;43217;52.694;6.214;2023-04-01T06:01:37;10.40;;;5.35;;
57389;SDS011;43217;52.694;6.214;2023-04-01T06:04:03;12.02;;;5.47;;
57389;SDS011;43217;52.694;6.214;2023-04-01T06:06:30;13.38;;;5.55;;
57389;SDS011;43217;52.694;6.214;2023-04-01T06:09:18;12.20;;;5.80;;
57389;SDS011;43217;52.694;6.214;2023-04-01T06:15:00;11.90;;;5.65;;
57389;SDS011;43217;52.694;6.214;2023-04-01T06:17:52;13.45;;;6.45;;
57389;SDS011;43217;52.694;6.214;2023-04-01T06:23:30;14.60;;;7.20;;
57389;SDS011;43217;52.694;6.214;2023-04-01T06:26:08;19.40;;;9.05;;
57389;SDS011;43217;52.694;6.214;2023-04-01T06:34:17;27.17;;;12.20;;
57389;SDS011;43217;52.694;6.214;2023-04-01T06:37:10;29.10;;;11.95;;
57389;SDS011;43217;52.694;6.214;2023-04-01T06:42:46;20.65;;;9.82;;
57389;SDS011;43217;52.694;6.214;2023-04-01T06:45:28;24.88;;;9.88;;
57389;SDS011;43217;52.694;6.214;2023-04-01T06:47:58;36.75;;;18.83;;
57389;SDS011;43217;52.694;6.214;2023-04-01T06:56:19;22.00;;;10.20;;
57389;SDS011;43217;52.694;6.214;2023-04-01T06:58:56;17.70;;;8.75;;
57389;SDS011;43217;52.694;6.214;2023-04-01T07:04:16;15.73;;;8.13;;
57389;SDS011;43217;52.694;6.214;2023-04-01T07:06:58;22.90;;;15.23;;
57389;SDS011;43217;52.694;6.214;2023-04-01T07:09:27;13.13;;;6.50;;
57389;SDS011;43217;52.694;6.214;2023-04-01T07:12:00;16.52;;;9.02;;
57389;SDS011;43217;52.694;6.214;2023-04-01T07:14:32;11.60;;;6.40;;
57389;SDS011;43217;52.694;6.214;2023-04-01T07:24:54;16.88;;;8.10;;
57389;SDS011;43217;52.694;6.214;2023-04-01T07:27:20;17.98;;;8.35;;
57389;SDS011;43217;52.694;6.214;2023-04-01T07:29:45;13.48;;;7.38;;
57389;SDS011;43217;52.694;6.214;2023-04-01T07:32:17;12.35;;;6.95;;
57389;SDS011;43217;52.694;6.214;2023-04-01T07:35:09;13.45;;;6.72;;
57389;SDS011;43217;52.694;6.214;2023-04-01T07:40:37;15.32;;;8.82;;
57389;SDS011;43217;52.694;6.214;2023-04-01T07:49:25;10.27;;;5.97;;
57389;SDS011;43217;52.694;6.214;2023-04-01T07:51:49;9.02;;;5.28;;
57389;SDS011;43217;52.694;6.214;2023-04-01T08:05:14;10.38;;;8.23;;
57389;SDS011;43217;52.694;6.214;2023-04-01T08:10:43;9.48;;;7.45;;
57389;SDS011;43217;52.694;6.214;2023-04-01T08:21:52;6.60;;;5.72;;
57389;SDS011;43217;52.694;6.214;2023-04-01T08:24:40;6.78;;;5.13;;
57389;SDS011;43217;52.694;6.214;2023-04-01T08:27:21;6.03;;;4.85;;
57389;SDS011;43217;52.694;6.214;2023-04-01T08:30:16;4.05;;;3.65;;
57389;SDS011;43217;52.694;6.214;2023-04-01T08:38:18;3.90;;;3.50;;
57389;SDS011;43217;52.694;6.214;2023-04-01T08:57:11;4.70;;;4.20;;
57389;SDS011;43217;52.694;6.214;2023-04-01T09:05:31;5.50;;;5.00;;
57389;SDS011;43217;52.694;6.214;2023-04-01T09:27:33;7.63;;;6.75;;
57389;SDS011;43217;52.694;6.214;2023-04-01T09:33:23;7.10;;;5.47;;
57389;SDS011;43217;52.694;6.214;2023-04-01T09:36:22;5.00;;;4.50;;
57389;SDS011;43217;52.694;6.214;2023-04-01T09:41:57;4.20;;;3.80;;
57389;SDS011;43217;52.694;6.214;2023-04-01T09:44:54;2.97;;;2.50;;
57389;SDS011;43217;52.694;6.214;2023-04-01T09:47:33;3.22;;;2.80;;
57389;SDS011;43217;52.694;6.214;2023-04-01T10:11:56;4.07;;;3.67;;
57389;SDS011;43217;52.694;6.214;2023-04-01T10:17:37;4.10;;;3.70;;
57389;SDS011;43217;52.694;6.214;2023-04-01T10:23:20;5.63;;;5.10;;
57389;SDS011;43217;52.694;6.214;2023-04-01T10:33:55;7.22;;;6.53;;
57389;SDS011;43217;52.694;6.214;2023-04-01T10:36:56;8.05;;;7.25;;
57389;SDS011;43217;52.694;6.214;2023-04-01T10:48:00;7.85;;;7.05;;
57389;SDS011;43217;52.694;6.214;2023-04-01T11:04:54;8.77;;;7.88;;
57389;SDS011;43217;52.694;6.214;2023-04-01T11:13:27;9.10;;;8.20;;
57389;SDS011;43217;52.694;6.214;2023-04-01T11:21:38;9.93;;;9.00;;
57389;SDS011;43217;52.694;6.214;2023-04-01T11:26:59;10.02;;;8.98;;
57389;SDS011;43217;52.694;6.214;2023-04-01T11:29:44;9.80;;;8.90;;
57389;SDS011;43217;52.694;6.214;2023-04-01T11:38:09;11.18;;;10.07;;
57389;SDS011;43217;52.694;6.214;2023-04-01T11:43:18;8.18;;;7.40;;
57389;SDS011;43217;52.694;6.214;2023-04-01T11:46:14;7.85;;;7.15;;
57389;SDS011;43217;52.694;6.214;2023-04-01T12:08:04;7.43;;;6.82;;
57389;SDS011;43217;52.694;6.214;2023-04-01T12:18:56;7.32;;;6.72;;
57389;SDS011;43217;52.694;6.214;2023-04-01T12:30:24;7.28;;;6.60;;
57389;SDS011;43217;52.694;6.214;2023-04-01T12:36:01;6.78;;;6.18;;
57389;SDS011;43217;52.694;6.214;2023-04-01T12:55:46;5.32;;;4.93;;
57389;SDS011;43217;52.694;6.214;2023-04-01T13:08:59;5.18;;;4.78;;
57389;SDS011;43217;52.694;6.214;2023-04-01T13:12:02;5.15;;;4.75;;
57389;SDS011;43217;52.694;6.214;2023-04-01T13:20:29;5.80;;;5.30;;
57389;SDS011;43217;52.694;6.214;2023-04-01T13:25:40;5.97;;;5.47;;
57389;SDS011;43217;52.694;6.214;2023-04-01T13:28:28;6.32;;;5.72;;
57389;SDS011;43217;52.694;6.214;2023-04-01T13:42:28;7.63;;;6.95;;
57389;SDS011;43217;52.694;6.214;2023-04-01T13:45:02;8.07;;;7.38;;
57389;SDS011;43217;52.694;6.214;2023-04-01T13:51:01;7.43;;;6.80;;
57389;SDS011;43217;52.694;6.214;2023-04-01T13:58:53;6.20;;;5.70;;
57389;SDS011;43217;52.694;6.214;2023-04-01T14:07:11;18.80;;;17.42;;
57389;SDS011;43217;52.694;6.214;2023-04-01T14:18:41;4.90;;;4.50;;
57389;SDS011;43217;52.694;6.214;2023-04-01T14:30:24;5.50;;;5.10;;
57389;SDS011;43217;52.694;6.214;2023-04-01T14:57:29;4.13;;;3.90;;
57389;SDS011;43217;52.694;6.214;2023-04-01T15:00:00;4.03;;;3.65;;
57389;SDS011;43217;52.694;6.214;2023-04-01T15:03:02;3.60;;;3.40;;
57389;SDS011;43217;52.694;6.214;2023-04-01T15:05:46;3.20;;;3.00;;
57389;SDS011;43217;52.694;6.214;2023-04-01T15:09:06;3.38;;;3.17;;
57389;SDS011;43217;52.694;6.214;2023-04-01T15:15:04;3.00;;;2.80;;
57389;SDS011;43217;52.694;6.214;2023-04-01T15:20:25;2.90;;;2.70;;
57389;SDS011;43217;52.694;6.214;2023-04-01T15:32:04;3.10;;;2.90;;
57389;SDS011;43217;52.694;6.214;2023-04-01T15:34:34;3.45;;;3.25;;
57389;SDS011;43217;52.694;6.214;2023-04-01T15:37:45;3.33;;;3.13;;
57389;SDS011;43217;52.694;6.214;2023-04-01T15:39:54;3.15;;;2.95;;
57389;SDS011;43217;52.694;6.214;2023-04-01T16:01:38;3.88;;;3.58;;
57389;SDS011;43217;52.694;6.214;2023-04-01T16:15:24;3.67;;;3.45;;
57389;SDS011;43217;52.694;6.214;2023-04-01T16:24:12;5.65;;;5.25;;
57389;SDS011;43217;52.694;6.214;2023-04-01T16:26:28;3.45;;;3.25;;
57389;SDS011;43217;52.694;6.214;2023-04-01T16:29:10;5.32;;;5.03;;
57389;SDS011;43217;52.694;6.214;2023-04-01T16:31:48;4.22;;;3.83;;
57389;SDS011;43217;52.694;6.214;2023-04-01T16:37:34;3.55;;;3.33;;
57389;SDS011;43217;52.694;6.214;2023-04-01T16:42:56;3.75;;;3.53;;
57389;SDS011;43217;52.694;6.214;2023-04-01T16:51:30;7.82;;;7.32;;
57389;SDS011;43217;52.694;6.214;2023-04-01T16:54:14;3.65;;;3.45;;
57389;SDS011;43217;52.694;6.214;2023-04-01T16:59:40;3.40;;;3.20;;
57389;SDS011;43217;52.694;6.214;2023-04-01T17:02:21;3.65;;;3.45;;
57389;SDS011;43217;52.694;6.214;2023-04-01T17:07:43;3.72;;;3.50;;
57389;SDS011;43217;52.694;6.214;2023-04-01T17:13:27;5.20;;;4.80;;
57389;SDS011;43217;52.694;6.214;2023-04-01T17:27:40;11.73;;;10.73;;
57389;SDS011;43217;52.694;6.214;2023-04-01T17:30:17;8.73;;;8.02;;
57389;SDS011;43217;52.694;6.214;2023-04-01T17:32:50;7.05;;;6.55;;
57389;SDS011;43217;52.694;6.214;2023-04-01T17:35:57;7.93;;;7.25;;
57389;SDS011;43217;52.694;6.214;2023-04-01T17:38:39;8.20;;;7.50;;
57389;SDS011;43217;52.694;6.214;2023-04-01T17:44:04;10.63;;;9.73;;
57389;SDS011;43217;52.694;6.214;2023-04-01T17:49:36;8.95;;;8.07;;
57389;SDS011;43217;52.694;6.214;2023-04-01T17:52:27;8.57;;;7.88;;
57389;SDS011;43217;52.694;6.214;2023-04-01T17:55:20;9.05;;;8.23;;
57389;SDS011;43217;52.694;6.214;2023-04-01T18:00:47;7.95;;;7.20;;
57389;SDS011;43217;52.694;6.214;2023-04-01T18:20:42;7.72;;;7.03;;
57389;SDS011;43217;52.694;6.214;2023-04-01T18:23:35;8.53;;;7.83;;
57389;SDS011;43217;52.694;6.214;2023-04-01T18:26:10;8.52;;;7.70;;
57389;SDS011;43217;52.694;6.214;2023-04-01T18:32:12;8.57;;;7.75;;
57389;SDS011;43217;52.694;6.214;2023-04-01T18:37:39;6.78;;;6.18;;
57389;SDS011;43217;52.694;6.214;2023-04-01T18:40:22;6.97;;;6.28;;
57389;SDS011;43217;52.694;6.214;2023-04-01T18:49:06;7.95;;;7.25;;
57389;SDS011;43217;52.694;6.214;2023-04-01T18:54:29;12.52;;;11.25;;
57389;SDS011;43217;52.694;6.214;2023-04-01T18:57:04;12.43;;;11.13;;
57389;SDS011;43217;52.694;6.214;2023-04-01T19:15:44;16.35;;;14.82;;
57389;SDS011;43217;52.694;6.214;2023-04-01T19:24:18;8.93;;;8.05;;
57389;SDS011;43217;52.694;6.214;2023-04-01T19:38:26;9.82;;;8.70;;
57389;SDS011;43217;52.694;6.214;2023-04-01T19:40:54;9.98;;;9.10;;
57389;SDS011;43217;52.694;6.214;2023-04-01T19:43:35;10.70;;;9.70;;
57389;SDS011;43217;52.694;6.214;2023-04-01T19:46:17;9.85;;;9.00;;
57389;SDS011;43217;52.694;6.214;2023-04-01T19:51:50;11.15;;;10.15;;
57389;SDS011;43217;52.694;6.214;2023-04-01T19:59:53;12.05;;;10.90;;
57389;SDS011;43217;52.694;6.214;2023-04-01T20:04:58;12.40;;;10.88;;
57389;SDS011;43217;52.694;6.214;2023-04-01T20:07:42;11.45;;;10.30;;
57389;SDS011;43217;52.694;6.214;2023-04-01T20:10:32;11.15;;;10.05;;
57389;SDS011;43217;52.694;6.214;2023-04-01T20:13:23;10.67;;;9.50;;
57389;SDS011;43217;52.694;6.214;2023-04-01T20:16:01;11.35;;;10.35;;
57389;SDS011;43217;52.694;6.214;2023-04-01T20:18:36;11.27;;;10.10;;
57389;SDS011;43217;52.694;6.214;2023-04-01T20:21:09;11.00;;;9.55;;
57389;SDS011;43217;52.694;6.214;2023-04-01T20:26:43;11.65;;;9.43;;
57389;SDS011;43217;52.694;6.214;2023-04-01T20:34:44;10.68;;;9.48;;
57389;SDS011;43217;52.694;6.214;2023-04-01T20:45:45;11.75;;;9.93;;
57389;SDS011;43217;52.694;6.214;2023-04-01T20:51:15;11.43;;;10.23;;
57389;SDS011;43217;52.694;6.214;2023-04-01T21:04:34;13.63;;;10.40;;
57389;SDS011;43217;52.694;6.214;2023-04-01T21:10:26;12.13;;;10.18;;
57389;SDS011;43217;52.694;6.214;2023-04-01T21:12:49;13.07;;;10.55;;
57389;SDS011;43217;52.694;6.214;2023-04-01T21:26:54;13.52;;;10.80;;
57389;SDS011;43217;52.694;6.214;2023-04-01T21:30:02;14.40;;;10.85;;
57389;SDS011;43217;52.694;6.214;2023-04-01T21:32:41;17.08;;;11.15;;
57389;SDS011;43217;52.694;6.214;2023-04-01T22:02:32;14.50;;;10.95;;
57389;SDS011;43217;52.694;6.214;2023-04-01T22:10:49;13.15;;;10.80;;
57389;SDS011;43217;52.694;6.214;2023-04-01T22:18:55;14.38;;;11.05;;
57389;SDS011;43217;52.694;6.214;2023-04-01T22:21:39;12.38;;;10.95;;
57389;SDS011;43217;52.694;6.214;2023-04-01T22:32:23;14.32;;;11.57;;
57389;SDS011;43217;52.694;6.214;2023-04-01T22:35:41;12.90;;;10.55;;
57389;SDS011;43217;52.694;6.214;2023-04-01T22:41:03;12.05;;;10.20;;
57389;SDS011;43217;52.694;6.214;2023-04-01T22:43:47;11.10;;;9.95;;
57389;SDS011;43217;52.694;6.214;2023-04-01T22:46:26;11.57;;;10.05;;
57389;SDS011;43217;52.694;6.214;2023-04-01T22:49:20;13.50;;;10.07;;
57389;SDS011;43217;52.694;6.214;2023-04-01T22:54:53;12.10;;;10.50;;
57389;SDS011;43217;52.694;6.214;2023-04-01T23:00:05;14.70;;;10.52;;
57389;SDS011;43217;52.694;6.214;2023-04-01T23:02:36;12.38;;;9.98;;
57389;SDS011;43217;52.694;6.214;2023-04-01T23:05:05;13.63;;;10.35;;
57389;SDS011;43217;52.694;6.214;2023-04-01T23:07:38;13.23;;;10.73;;
57389;SDS011;43217;52.694;6.214;2023-04-01T23:10:25;11.93;;;9.70;;
57389;SDS011;43217;52.694;6.214;2023-04-01T23:12:55;15.30;;;10.20;;
57389;SDS011;43217;52.694;6.214;2023-04-01T23:15:23;12.27;;;10.77;;
57389;SDS011;43217;52.694;6.214;2023-04-01T23:31:18;11.02;;;9.48;;
57389;SDS011;43217;52.694;6.214;2023-04-01T23:36:42;12.07;;;9.88;;
57389;SDS011;43217;52.694;6.214;2023-04-01T23:42:03;12.88;;;9.75;;
57389;SDS011;43217;52.694;6.214;2023-04-01T23:44:31;12.30;;;9.45;;
57389;SDS011;43217;52.694;6.214;2023-04-01T23:46:59;15.10;;;10.15;;
57389;SDS011;43217;52.694;6.214;2023-04-01T23:49:30;11.60;;;10.00;;
57389;SDS011;43217;52.694;6.214;2023-04-01T23:52:10;11.05;;;9.88;;
57389;SDS011;43217;52.694;6.214;2023-04-01T23:54:56;11.57;;;9.40;;
57389;SDS011;43217;52.694;6.214;2023-04-01T23:57:33;9.27;;;8.25;;
